Terminal Aerodrome Forecast
Issued by NWS

Home | Current Version | Previous Version | Text Only | Print | Product List | Glossary On
Versions: 1 2 3 4 5 6 7 8 9 10 11 12 13 14 15 16 17 18 19 20 21 22 23 24 25 26
000
FTUS46 KEKA 211136
TAFCEC
TAF
KCEC 211136Z 2112/2212 15011KT 6SM BR VCSH FEW010 SCT020 BKN050
      TEMPO 2112/2114 5SM -SHRA BKN020
     FM211800 16012KT P6SM SCT050 BKN100
     FM220400 15012KT P6SM FEW035 OVC050
     FM220900 15015G22KT P6SM SCT035 OVC050=

USA.gov is the U.S. government's official web portal to all federal, state and local government web resources and services.